Time;durP1;ratioP1;P1;durP2;ratioP2;P2;SDS_P1;SDS_P2;PMS_P1;PMS_P2;Temp;Humidity;BMP_temperature;BMP_pressure;BME280_temperature;BME280_humidity;BME280_pressure;Samples;Min_cycle;Max_cycle;Signal;HPM_P1;HPM_P2
2022/03/07 00:02:11;;;;;;;10.18;4.65;;;-0.60;99.90;;;;;;4825769;29;20061;-80
2022/03/07 00:04:37;;;;;;;14.52;5.63;;;-0.60;99.90;;;;;;4825718;29;20190;-79
2022/03/07 00:07:04;;;;;;;12.38;5.18;;;-0.60;99.90;;;;;;4825835;29;20384;-80
2022/03/07 00:09:29;;;;;;;13.05;4.90;;;-0.70;99.90;;;;;;4794015;29;20136;-78
2022/03/07 00:11:58;;;;;;;10.93;5.10;;;-0.70;99.90;;;;;;4825643;29;20093;-76
2022/03/07 00:14:24;;;;;;;12.05;3.80;;;-0.20;99.90;;;;;;4794179;29;20078;-79
2022/03/07 00:16:49;;;;;;;11.07;4.05;;;-0.80;99.90;;;;;;4825077;29;20158;-80
2022/03/07 00:19:16;;;;;;;7.20;2.67;;;-0.80;99.90;;;;;;4808886;29;20046;-80
2022/03/07 00:21:42;;;;;;;5.32;1.80;;;-0.80;99.90;;;;;;4825434;29;20426;-80
2022/03/07 00:24:08;;;;;;;5.20;2.58;;;0.40;99.90;;;;;;4825356;29;20042;-78
2022/03/07 00:26:34;;;;;;;6.93;2.63;;;-0.90;99.90;;;;;;4808970;29;20107;-79
2022/03/07 00:29:00;;;;;;;7.10;2.95;;;-0.80;99.90;;;;;;4825282;29;20495;-80
2022/03/07 00:31:26;;;;;;;8.25;3.33;;;-0.90;99.90;;;;;;4825042;29;20057;-79
2022/03/07 00:33:52;;;;;;;8.50;2.85;;;-0.90;99.90;;;;;;4824915;29;20062;-80
2022/03/07 00:36:19;;;;;;;7.55;3.10;;;-0.90;99.90;;;;;;4825250;29;20129;-80
2022/03/07 00:38:45;;;;;;;5.75;2.60;;;-0.90;99.90;;;;;;4825023;29;20535;-80
2022/03/07 00:41:11;;;;;;;5.47;2.65;;;-0.80;99.90;;;;;;4825024;29;20530;-80
2022/03/07 00:43:38;;;;;;;5.45;2.25;;;-1.00;99.90;;;;;;4824966;29;20050;-80
2022/03/07 00:46:04;;;;;;;2.97;1.38;;;-1.00;99.90;;;;;;4824965;29;20380;-81
2022/03/07 00:48:29;;;;;;;5.43;2.10;;;-1.00;99.90;;;;;;4825180;29;20054;-79
2022/03/07 00:50:55;;;;;;;10.35;3.45;;;-1.10;99.90;;;;;;4824697;29;20053;-78
2022/03/07 00:53:23;;;;;;;5.40;2.13;;;-1.10;99.90;;;;;;4824814;29;20092;-80
2022/03/07 00:55:50;;;;;;;6.82;2.10;;;-1.10;99.90;;;;;;4824934;29;20421;-80
2022/03/07 00:58:16;;;;;;;7.22;2.58;;;-1.10;99.90;;;;;;4808225;29;20194;-80
2022/03/07 01:00:42;;;;;;;10.73;2.70;;;-1.10;99.90;;;;;;4808434;29;20125;-79
2022/03/07 01:03:09;;;;;;;5.28;1.80;;;-1.10;99.90;;;;;;4793589;29;20047;-80
2022/03/07 01:05:35;;;;;;;4.78;2.13;;;-1.20;99.90;;;;;;4824581;29;20046;-80
2022/03/07 01:08:01;;;;;;;9.98;3.47;;;-1.20;99.90;;;;;;4808346;29;20411;-79
2022/03/07 01:10:27;;;;;;;6.47;2.80;;;-0.70;99.90;;;;;;4808131;29;20066;-80
2022/03/07 01:12:53;;;;;;;5.22;1.88;;;-1.20;99.90;;;;;;4824743;29;20070;-82
2022/03/07 01:15:19;;;;;;;7.20;2.22;;;-1.30;99.90;;;;;;4824399;29;20066;-79
2022/03/07 01:17:45;;;;;;;5.40;2.40;;;-1.30;99.90;;;;;;4807928;29;20426;-80
2022/03/07 01:20:11;;;;;;;5.45;1.70;;;-1.40;99.90;;;;;;4824740;29;20049;-80
2022/03/07 01:22:38;;;;;;;5.43;2.20;;;-1.30;99.90;;;;;;4807322;29;20141;-80
2022/03/07 01:25:05;;;;;;;4.32;1.77;;;-1.30;99.90;;;;;;4807556;29;20115;-80
2022/03/07 01:27:31;;;;;;;5.40;1.73;;;-1.30;99.90;;;;;;4824355;29;20496;-79
2022/03/07 01:29:57;;;;;;;4.60;1.75;;;-1.30;99.90;;;;;;4807919;29;20046;-80
2022/03/07 01:32:23;;;;;;;3.95;1.90;;;-1.10;99.90;;;;;;4792810;29;20057;-80
2022/03/07 01:34:49;;;;;;;6.93;2.35;;;-1.30;99.90;;;;;;4824306;29;20050;-79
2022/03/07 01:37:14;;;;;;;5.30;2.13;;;-1.30;99.90;;;;;;4807242;29;20054;-80
2022/03/07 01:39:40;;;;;;;5.57;2.00;;;-1.30;99.90;;;;;;4824144;29;20407;-80
2022/03/07 01:42:06;;;;;;;8.55;2.58;;;-1.30;99.90;;;;;;4824430;29;20410;-80
2022/03/07 01:44:32;;;;;;;7.68;2.42;;;-1.40;99.90;;;;;;4824303;29;20483;-80
2022/03/07 01:46:58;;;;;;;8.35;2.08;;;0.10;99.90;;;;;;4807983;29;20452;-80
2022/03/07 01:49:25;;;;;;;5.65;2.00;;;-1.40;99.90;;;;;;4824513;29;20443;-80
2022/03/07 01:51:51;;;;;;;5.20;2.55;;;-1.50;99.90;;;;;;4824017;29;20054;-80
2022/03/07 01:54:19;;;;;;;4.95;1.83;;;-1.50;99.90;;;;;;4823898;29;20054;-80
2022/03/07 01:56:46;;;;;;;4.68;1.65;;;-0.30;99.90;;;;;;4824287;29;20180;-79
2022/03/07 01:59:14;;;;;;;5.20;2.28;;;-1.50;99.90;;;;;;4823826;29;20049;-80
2022/03/07 02:01:40;;;;;;;6.47;2.10;;;-1.50;99.90;;;;;;4807637;29;20106;-80
2022/03/07 02:04:07;;;;;;;4.10;1.75;;;-1.50;99.90;;;;;;4807470;29;20054;-79
2022/03/07 02:06:33;;;;;;;2.38;1.20;;;-1.50;99.90;;;;;;4824441;29;20072;-80
2022/03/07 02:08:58;;;;;;;6.28;2.55;;;-1.60;99.90;;;;;;4823643;29;20074;-81
2022/03/07 02:11:25;;;;;;;5.28;2.55;;;-1.60;99.90;;;;;;4823990;29;20047;-80
2022/03/07 02:13:52;;;;;;;4.47;1.63;;;-1.60;99.90;;;;;;4824105;29;20061;-80
2022/03/07 02:16:19;;;;;;;5.47;2.38;;;-1.60;99.90;;;;;;4823914;29;20050;-80
2022/03/07 02:18:46;;;;;;;6.28;2.55;;;-1.70;99.90;;;;;;4807693;29;20069;-81
2022/03/07 02:21:15;;;;;;;9.82;3.35;;;-0.90;99.90;;;;;;4807858;29;20449;-77
2022/03/07 02:23:43;;;;;;;8.45;3.67;;;-1.70;99.90;;;;;;4814129;29;20062;-78
2022/03/07 02:26:14;;;;;;;10.30;4.35;;;-1.00;99.90;;;;;;4815684;29;20050;-79
2022/03/07 02:28:42;;;;;;;10.37;4.10;;;-1.70;99.90;;;;;;4800483;29;20507;-79
2022/03/07 02:31:10;;;;;;;9.90;4.07;;;-1.80;99.90;;;;;;4832106;29;20129;-80
2022/03/07 02:33:36;;;;;;;8.77;3.97;;;-1.90;99.90;;;;;;4812185;29;20142;-79
2022/03/07 02:36:03;;;;;;;8.52;3.42;;;-1.90;99.90;;;;;;4811053;29;20050;-80
2022/03/07 02:38:30;;;;;;;7.55;3.17;;;-2.00;99.90;;;;;;4811304;29;20050;-80
2022/03/07 02:40:55;;;;;;;8.27;3.22;;;-2.00;99.90;;;;;;4826926;29;20130;-80
2022/03/07 02:43:21;;;;;;;8.95;3.50;;;-2.00;99.90;;;;;;4811055;29;20145;-80
2022/03/07 02:45:47;;;;;;;11.85;5.72;;;-2.10;99.90;;;;;;4795660;29;20042;-81
2022/03/07 02:48:13;;;;;;;14.68;6.55;;;-2.10;99.90;;;;;;4826878;29;20057;-80
2022/03/07 02:50:39;;;;;;;12.77;6.03;;;-2.10;99.90;;;;;;4826905;29;20061;-80
2022/03/07 02:53:05;;;;;;;16.35;5.68;;;-2.10;99.90;;;;;;4826978;29;20436;-80
2022/03/07 02:55:34;;;;;;;11.27;5.78;;;-2.20;99.90;;;;;;4826435;29;20326;-81
2022/03/07 02:58:00;;;;;;;11.40;5.78;;;-2.10;99.90;;;;;;4826696;29;20046;-80
2022/03/07 03:00:26;;;;;;;12.70;6.20;;;-2.10;99.90;;;;;;4826523;29;20506;-80
2022/03/07 03:02:51;;;;;;;15.75;5.88;;;-2.10;99.90;;;;;;4795609;29;20062;-80
2022/03/07 03:05:17;;;;;;;12.40;5.88;;;-2.10;99.90;;;;;;4810286;29;20061;-81
2022/03/07 03:07:43;;;;;;;15.05;5.22;;;-2.10;99.90;;;;;;4810342;29;20054;-80
2022/03/07 03:10:09;;;;;;;21.60;5.78;;;-2.10;99.90;;;;;;4826652;29;20129;-80
2022/03/07 03:12:35;;;;;;;36.35;8.45;;;-2.10;99.90;;;;;;4809785;29;20050;-81
2022/03/07 03:15:01;;;;;;;33.72;8.57;;;-2.20;99.90;;;;;;4795133;29;20058;-80
2022/03/07 03:17:26;;;;;;;41.67;9.27;;;-2.10;99.90;;;;;;4826271;29;20552;-80
2022/03/07 03:19:53;;;;;;;44.92;8.85;;;-2.10;99.90;;;;;;4826385;29;20085;-80
2022/03/07 03:22:22;;;;;;;40.42;8.93;;;-2.00;99.90;;;;;;4826509;29;20107;-81
2022/03/07 03:24:48;;;;;;;37.75;9.38;;;-2.00;99.90;;;;;;4826433;29;20049;-79
2022/03/07 03:27:14;;;;;;;32.78;8.70;;;-2.00;99.90;;;;;;4794912;29;20055;-81
2022/03/07 03:29:40;;;;;;;38.47;9.13;;;-2.00;99.90;;;;;;4810067;29;20046;-80
2022/03/07 03:32:06;;;;;;;83.90;10.75;;;-2.00;99.90;;;;;;4809707;29;20057;-81
2022/03/07 03:34:32;;;;;;;87.20;12.10;;;-2.10;99.90;;;;;;4809958;29;20061;-81
2022/03/07 03:36:57;;;;;;;64.82;11.23;;;-2.10;99.90;;;;;;4826222;29;20461;-81
2022/03/07 03:39:23;;;;;;;81.95;10.07;;;-2.10;99.90;;;;;;4826279;29;20047;-80
2022/03/07 03:41:49;;;;;;;29.00;11.48;;;-2.10;99.90;;;;;;4826237;29;20132;-80
2022/03/07 03:44:14;;;;;;;19.65;9.30;;;-2.10;99.90;;;;;;4824985;29;20109;-80
2022/03/07 03:46:40;;;;;;;29.70;8.82;;;-2.10;99.90;;;;;;4794641;29;20141;-79
2022/03/07 03:49:06;;;;;;;20.35;8.50;;;-2.20;99.90;;;;;;4809672;29;20051;-81
2022/03/07 03:51:34;;;;;;;22.17;8.77;;;-2.20;99.90;;;;;;4809693;29;20112;-81
2022/03/07 03:54:00;;;;;;;22.00;8.45;;;-2.20;99.90;;;;;;4826047;29;20046;-81
2022/03/07 03:56:26;;;;;;;21.23;9.25;;;-2.30;99.90;;;;;;4825976;29;20529;-81
2022/03/07 03:58:51;;;;;;;19.98;8.70;;;-2.20;99.90;;;;;;4825490;29;20054;-81
2022/03/07 04:01:17;;;;;;;20.15;9.25;;;-2.20;99.90;;;;;;4794251;29;20054;-81
2022/03/07 04:03:43;;;;;;;19.98;8.65;;;-2.10;99.90;;;;;;4809727;29;20054;-81
2022/03/07 04:06:09;;;;;;;19.63;9.30;;;-2.10;99.90;;;;;;4794719;29;20566;-81
2022/03/07 04:08:50;;;;;;;21.02;9.13;;;-2.10;99.90;;;;;;4794198;29;20050;-81
2022/03/07 04:11:16;;;;;;;22.63;9.40;;;-2.10;99.90;;;;;;4809226;29;20057;-81
2022/03/07 04:13:42;;;;;;;22.30;9.98;;;-2.00;99.90;;;;;;4794055;29;20534;-81
2022/03/07 04:16:08;;;;;;;20.58;9.05;;;-2.00;99.90;;;;;;4825199;29;20093;-82
2022/03/07 04:18:34;;;;;;;25.80;10.48;;;-2.00;99.90;;;;;;4809172;29;20090;-81
2022/03/07 04:20:59;;;;;;;20.58;9.25;;;-1.90;99.90;;;;;;4794209;29;20078;-81
2022/03/07 04:23:25;;;;;;;21.77;10.15;;;-1.90;99.90;;;;;;4825635;29;20054;-82
2022/03/07 04:25:51;;;;;;;23.65;10.13;;;-1.80;99.90;;;;;;4825477;29;20054;-81
2022/03/07 04:28:17;;;;;;;21.05;10.10;;;-1.90;99.90;;;;;;4794069;29;20057;-81
2022/03/07 04:30:42;;;;;;;19.77;9.60;;;-1.90;99.90;;;;;;4808556;29;20090;-79
2022/03/07 04:33:09;;;;;;;18.55;8.85;;;-1.90;99.90;;;;;;4825123;29;20038;-81
2022/03/07 04:35:35;;;;;;;17.70;9.52;;;-1.90;99.90;;;;;;4825113;29;20503;-81
2022/03/07 04:38:01;;;;;;;19.27;8.63;;;-1.90;99.90;;;;;;4825234;29;20099;-82
2022/03/07 04:40:28;;;;;;;20.30;9.98;;;-1.90;99.90;;;;;;4809005;29;20500;-80
2022/03/07 04:42:56;;;;;;;23.90;9.30;;;-1.90;99.90;;;;;;4824946;29;20038;-81
2022/03/07 04:45:22;;;;;;;20.30;9.57;;;-1.80;99.90;;;;;;4793512;29;20055;-81
2022/03/07 04:47:49;;;;;;;21.45;9.52;;;-0.90;99.90;;;;;;4793498;29;20433;-81
2022/03/07 04:50:14;;;;;;;19.45;9.52;;;-2.00;99.90;;;;;;4808873;29;20507;-81
2022/03/07 04:52:42;;;;;;;18.08;8.77;;;-2.00;99.90;;;;;;4794275;29;20088;-82
2022/03/07 04:55:10;;;;;;;21.48;8.93;;;-2.00;99.90;;;;;;4808684;29;20046;-81
2022/03/07 04:57:36;;;;;;;20.00;9.25;;;-2.00;99.90;;;;;;4823824;29;20066;-80
2022/03/07 05:00:05;;;;;;;19.15;9.80;;;-2.00;99.90;;;;;;4824896;29;20045;-79
2022/03/07 05:02:31;;;;;;;16.77;8.38;;;-2.00;99.90;;;;;;4824274;29;20433;-82
2022/03/07 05:04:57;;;;;;;20.23;9.38;;;-1.90;99.90;;;;;;4808287;29;20045;-81
2022/03/07 05:07:24;;;;;;;21.60;9.50;;;-1.90;99.90;;;;;;4808360;29;20046;-82
2022/03/07 05:09:49;;;;;;;19.10;8.68;;;-1.80;99.90;;;;;;4808438;29;20488;-80
2022/03/07 05:12:15;;;;;;;21.75;10.23;;;-1.80;99.90;;;;;;4793410;29;20115;-81
2022/03/07 05:14:41;;;;;;;22.90;9.85;;;-1.80;99.90;;;;;;4793395;29;20499;-82
2022/03/07 05:17:07;;;;;;;22.63;9.32;;;-1.80;99.90;;;;;;4807513;29;20119;-81
2022/03/07 05:19:32;;;;;;;21.88;10.02;;;-1.80;99.90;;;;;;4808343;29;20050;-82
2022/03/07 05:21:58;;;;;;;21.90;9.85;;;-1.80;99.90;;;;;;4808174;29;20096;-82
2022/03/07 05:24:25;;;;;;;19.27;9.13;;;-1.40;99.90;;;;;;4824361;29;20398;-82
2022/03/07 05:26:51;;;;;;;19.73;9.43;;;-1.80;99.90;;;;;;4793270;29;20093;-81
2022/03/07 05:29:17;;;;;;;20.20;9.85;;;-1.80;99.90;;;;;;4824386;29;20118;-81
2022/03/07 05:31:43;;;;;;;22.38;10.00;;;-1.80;99.90;;;;;;4808062;29;20477;-81
2022/03/07 05:34:09;;;;;;;20.88;9.20;;;-1.90;99.90;;;;;;4807838;29;20130;-82
2022/03/07 05:36:34;;;;;;;18.92;9.88;;;-1.40;99.90;;;;;;4824337;29;20042;-82
2022/03/07 05:39:00;;;;;;;24.55;10.60;;;-1.90;99.90;;;;;;4807715;29;20499;-82
2022/03/07 05:41:26;;;;;;;19.10;9.43;;;-2.00;99.90;;;;;;4808081;29;20082;-82
2022/03/07 05:43:51;;;;;;;20.83;9.80;;;-0.60;99.90;;;;;;4793164;29;20107;-81
2022/03/07 05:46:17;;;;;;;19.85;9.73;;;-2.10;99.90;;;;;;4807947;29;20056;-80
2022/03/07 05:48:43;;;;;;;22.13;10.13;;;-2.10;99.90;;;;;;4807557;29;20046;-81
2022/03/07 05:51:08;;;;;;;21.70;9.73;;;-2.10;99.90;;;;;;4824404;29;20066;-82
2022/03/07 05:53:34;;;;;;;19.50;9.63;;;-2.10;99.90;;;;;;4807219;29;20062;-81
2022/03/07 05:56:00;;;;;;;20.60;9.85;;;-2.10;99.90;;;;;;4824113;29;20058;-81
2022/03/07 05:58:34;;;;;;;20.38;9.20;;;-2.10;99.90;;;;;;4793761;29;20136;-80
2022/03/07 06:01:00;;;;;;;17.20;8.10;;;-1.40;99.90;;;;;;4807789;29;20166;-83
2022/03/07 06:03:26;;;;;;;19.10;9.10;;;-2.20;99.90;;;;;;4807592;29;20050;-82
2022/03/07 06:05:51;;;;;;;18.55;8.25;;;-2.20;99.90;;;;;;4792754;29;20054;-82
2022/03/07 06:08:17;;;;;;;17.02;7.38;;;-2.30;99.90;;;;;;4823573;29;20038;-82
2022/03/07 06:10:43;;;;;;;16.38;7.38;;;-2.30;99.90;;;;;;4807989;29;20057;-81
2022/03/07 06:13:09;;;;;;;70.88;11.30;;;-2.30;99.90;;;;;;4807571;29;20495;-84
2022/03/07 06:15:35;;;;;;;47.55;9.82;;;-2.40;99.90;;;;;;4807397;29;20352;-81
2022/03/07 06:18:00;;;;;;;27.20;10.25;;;-2.40;99.90;;;;;;4823976;29;20423;-82
2022/03/07 06:20:26;;;;;;;23.10;11.30;;;-2.50;99.90;;;;;;4806772;29;20062;-81
2022/03/07 06:22:52;;;;;;;29.80;10.57;;;-2.60;99.90;;;;;;4807426;29;20058;-83
2022/03/07 06:25:19;;;;;;;20.00;9.73;;;-2.60;99.90;;;;;;4824015;29;20085;-82
2022/03/07 06:27:44;;;;;;;21.10;10.05;;;-2.60;99.90;;;;;;4823910;29;20058;-81
2022/03/07 06:30:10;;;;;;;23.00;11.10;;;-2.60;99.90;;;;;;4823841;29;20108;-78
2022/03/07 06:32:36;;;;;;;22.75;11.10;;;-2.60;99.90;;;;;;4823702;29;20107;-79
2022/03/07 06:35:03;;;;;;;22.83;10.40;;;-2.60;99.90;;;;;;4820665;29;20511;-79
2022/03/07 06:37:29;;;;;;;22.80;10.82;;;-2.50;99.90;;;;;;4822435;29;20133;-79
2022/03/07 06:39:55;;;;;;;20.70;10.45;;;-1.60;99.90;;;;;;4822181;29;20046;-79
2022/03/07 06:42:20;;;;;;;20.75;10.07;;;-2.40;99.90;;;;;;4806956;29;20516;-88
2022/03/07 06:44:46;;;;;;;23.00;11.73;;;-2.40;99.90;;;;;;4822248;29;20112;-83
2022/03/07 06:47:12;;;;;;;23.05;10.82;;;-2.40;99.90;;;;;;4824102;29;20539;-83
2022/03/07 06:49:39;;;;;;;24.75;11.13;;;-2.50;99.90;;;;;;4823472;29;20051;-76
2022/03/07 06:52:05;;;;;;;22.55;10.90;;;-2.40;99.90;;;;;;4823544;29;20062;-83
2022/03/07 06:54:31;;;;;;;22.60;10.77;;;-2.40;99.90;;;;;;4836961;29;20238;-83
2022/03/07 06:56:56;;;;;;;22.95;9.77;;;-2.40;99.90;;;;;;4832853;29;20049;-88
2022/03/07 06:59:22;;;;;;;20.80;9.75;;;-2.30;99.90;;;;;;4819162;29;20054;-86
2022/03/07 07:01:47;;;;;;;22.67;9.73;;;-0.90;99.90;;;;;;4820810;29;20068;-86
2022/03/07 07:04:13;;;;;;;19.15;9.60;;;-2.30;99.90;;;;;;4836491;29;20046;-82
2022/03/07 07:06:39;;;;;;;22.17;10.52;;;-2.20;99.90;;;;;;4832179;29;20404;-86
2022/03/07 07:09:04;;;;;;;19.35;10.60;;;-2.20;99.90;;;;;;4818117;29;20408;-89
2022/03/07 07:11:31;;;;;;;19.67;9.90;;;-2.20;99.90;;;;;;4813757;29;20252;-87
2022/03/07 07:13:56;;;;;;;25.52;10.10;;;-2.10;99.90;;;;;;4828726;29;20484;-86
2022/03/07 07:16:22;;;;;;;22.33;10.30;;;-2.20;99.90;;;;;;4811278;29;20069;-85
2022/03/07 07:18:48;;;;;;;22.13;10.80;;;-2.00;99.90;;;;;;4827733;29;20093;-87
2022/03/07 07:21:14;;;;;;;21.60;11.13;;;-2.00;99.90;;;;;;4831376;29;20043;-86
2022/03/07 07:23:39;;;;;;;19.83;10.02;;;-1.90;99.90;;;;;;4807541;29;20154;-84
2022/03/07 07:26:06;;;;;;;24.83;11.73;;;-1.80;99.90;;;;;;4807707;29;20460;-83
2022/03/07 07:28:32;;;;;;;23.15;10.40;;;-1.70;99.90;;;;;;4822386;29;20093;-82
2022/03/07 07:30:58;;;;;;;20.55;10.65;;;-0.80;99.90;;;;;;4823891;29;20542;-88
2022/03/07 07:33:24;;;;;;;21.52;10.90;;;-0.80;99.90;;;;;;4824452;29;20089;-84
2022/03/07 07:35:49;;;;;;;25.23;11.18;;;-1.50;99.90;;;;;;4807850;29;20082;-81
2022/03/07 07:38:15;;;;;;;21.52;11.55;;;-1.50;99.90;;;;;;4807227;29;20113;-89
2022/03/07 07:40:41;;;;;;;20.75;11.35;;;-1.40;99.90;;;;;;4808036;29;20059;-89
2022/03/07 07:43:07;;;;;;;23.00;11.48;;;-1.20;99.90;;;;;;4812556;29;20058;-87
2022/03/07 07:45:33;;;;;;;22.67;11.25;;;-1.30;99.90;;;;;;4823846;29;20054;-83
2022/03/07 07:47:59;;;;;;;23.45;11.60;;;-1.20;99.90;;;;;;4822078;29;20057;-87
2022/03/07 07:50:29;;;;;;;19.52;11.82;;;-1.20;99.90;;;;;;4823747;29;20046;-80
2022/03/07 07:52:55;;;;;;;20.88;12.25;;;-1.10;99.90;;;;;;4823827;29;20487;-83
2022/03/07 07:55:21;;;;;;;21.30;11.73;;;-1.00;99.90;;;;;;4823389;29;20069;-81
2022/03/07 07:57:47;;;;;;;23.30;12.68;;;-1.00;99.90;;;;;;4821799;29;20054;-84
2022/03/07 08:00:15;;;;;;;22.42;10.88;;;-1.00;99.90;;;;;;4807519;29;20086;-84
2022/03/07 08:02:42;;;;;;;19.02;11.32;;;-0.90;99.90;;;;;;4823111;29;20090;-82
2022/03/07 08:05:08;;;;;;;21.20;11.35;;;-0.90;99.90;;;;;;4807894;29;20070;-85
2022/03/07 08:07:34;;;;;;;24.42;12.57;;;-0.80;99.90;;;;;;4822633;29;20055;-85
2022/03/07 08:10:01;;;;;;;22.88;11.57;;;-0.80;99.90;;;;;;4806904;29;20053;-80
2022/03/07 08:12:27;;;;;;;25.85;11.70;;;-0.80;99.90;;;;;;4822969;29;20180;-85
2022/03/07 08:14:52;;;;;;;21.48;11.85;;;-0.70;99.90;;;;;;4823796;29;20460;-84
2022/03/07 08:17:18;;;;;;;22.77;12.77;;;-0.60;99.90;;;;;;4822019;29;20066;-82
2022/03/07 08:19:44;;;;;;;23.77;13.23;;;-0.50;99.90;;;;;;4806789;29;20043;-84
2022/03/07 08:22:09;;;;;;;23.55;13.40;;;-0.30;99.90;;;;;;4792045;29;20054;-85
2022/03/07 08:24:35;;;;;;;22.80;11.82;;;-0.30;99.90;;;;;;4823343;29;20054;-77
2022/03/07 08:27:01;;;;;;;19.40;12.15;;;-0.10;99.90;;;;;;4802006;29;20070;-84
2022/03/07 08:29:27;;;;;;;22.80;12.10;;;0.10;99.90;;;;;;4821273;29;20047;-81
2022/03/07 08:31:52;;;;;;;21.55;11.20;;;0.30;99.90;;;;;;4805953;29;20518;-86
2022/03/07 08:34:18;;;;;;;22.23;11.27;;;1.70;99.90;;;;;;4805908;29;20050;-82
2022/03/07 08:36:44;;;;;;;18.67;10.57;;;0.70;99.90;;;;;;4821583;29;20129;-77
2022/03/07 08:39:09;;;;;;;20.73;10.50;;;1.70;99.90;;;;;;4805780;29;20487;-76
2022/03/07 08:41:35;;;;;;;19.23;9.98;;;1.00;99.90;;;;;;4820634;29;20054;-76
2022/03/07 08:44:01;;;;;;;17.25;9.80;;;1.20;99.90;;;;;;4822542;29;20452;-74
2022/03/07 08:46:26;;;;;;;19.40;9.63;;;1.40;99.90;;;;;;4821851;29;20054;-75
2022/03/07 08:48:52;;;;;;;16.30;8.98;;;1.50;99.90;;;;;;4819837;29;20072;-73
2022/03/07 08:51:18;;;;;;;16.10;9.40;;;1.70;99.90;;;;;;4820233;29;20049;-74
2022/03/07 08:53:44;;;;;;;19.92;8.77;;;1.80;99.90;;;;;;4822327;29;20510;-79
2022/03/07 08:56:10;;;;;;;17.50;8.20;;;1.90;99.90;;;;;;4821404;29;20129;-79
2022/03/07 08:58:36;;;;;;;17.85;8.40;;;2.10;99.90;;;;;;4820924;29;20042;-79
2022/03/07 09:01:02;;;;;;;17.15;7.57;;;2.30;99.90;;;;;;4790548;29;20049;-84
2022/03/07 09:03:27;;;;;;;13.90;6.40;;;2.40;99.90;;;;;;4804972;29;20608;-76
2022/03/07 09:05:53;;;;;;;13.40;5.28;;;2.60;99.90;;;;;;4806033;29;20050;-76
2022/03/07 09:08:19;;;;;;;9.63;4.30;;;2.80;99.90;;;;;;4803738;29;20107;-74
2022/03/07 09:10:44;;;;;;;12.85;4.85;;;3.00;99.90;;;;;;4822020;29;20050;-77
2022/03/07 09:13:10;;;;;;;10.57;4.20;;;3.10;99.90;;;;;;4820094;29;20071;-76
2022/03/07 09:15:36;;;;;;;11.10;4.25;;;3.20;99.90;;;;;;4821627;29;20313;-78
2022/03/07 09:18:02;;;;;;;11.75;4.00;;;3.50;99.90;;;;;;4819919;29;20454;-73
2022/03/07 09:20:27;;;;;;;11.02;4.25;;;3.80;99.90;;;;;;4821321;29;20449;-77
2022/03/07 09:22:53;;;;;;;9.50;4.40;;;4.40;99.90;;;;;;4821083;29;20051;-76
2022/03/07 09:25:19;;;;;;;10.20;4.03;;;4.30;99.90;;;;;;4821267;29;20046;-76
2022/03/07 09:27:45;;;;;;;10.98;4.35;;;4.50;99.90;;;;;;4803947;29;20747;-77
2022/03/07 09:30:12;;;;;;;11.30;4.10;;;4.80;99.90;;;;;;4819502;29;20058;-77
2022/03/07 09:32:38;;;;;;;10.05;3.58;;;5.00;99.90;;;;;;4821208;29;20057;-76
2022/03/07 09:35:05;;;;;;;8.10;2.55;;;5.10;99.90;;;;;;4821139;29;20046;-78
2022/03/07 09:37:30;;;;;;;8.57;3.20;;;5.30;99.90;;;;;;4818899;29;20073;-73
2022/03/07 09:39:56;;;;;;;8.77;2.80;;;5.30;99.90;;;;;;4821889;29;20050;-78
2022/03/07 09:42:22;;;;;;;8.40;3.28;;;5.30;99.90;;;;;;4820032;29;20050;-78
2022/03/07 09:44:48;;;;;;;8.52;3.22;;;5.20;99.90;;;;;;4803964;29;20051;-80
2022/03/07 09:47:14;;;;;;;11.02;3.50;;;5.00;99.90;;;;;;4819393;29;20046;-80
2022/03/07 09:49:40;;;;;;;14.05;5.22;;;5.00;99.90;;;;;;4821280;29;20918;-76
2022/03/07 09:52:06;;;;;;;8.77;3.83;;;5.00;99.90;;;;;;4804789;29;20141;-76
2022/03/07 09:54:32;;;;;;;12.00;4.90;;;5.10;99.90;;;;;;4820169;29;20056;-77
2022/03/07 09:56:57;;;;;;;10.60;3.60;;;5.20;99.90;;;;;;4820373;29;20126;-76
2022/03/07 09:59:24;;;;;;;8.63;3.67;;;5.20;99.90;;;;;;4820727;29;20042;-78
2022/03/07 10:02:13;;;;;;;8.52;3.47;;;5.30;99.90;;;;;;4821240;29;20061;-79
2022/03/07 10:04:41;;;;;;;10.35;3.53;;;5.50;99.90;;;;;;4818852;29;20061;-77
2022/03/07 10:07:07;;;;;;;7.85;3.80;;;5.60;99.90;;;;;;4819187;29;20085;-78
2022/03/07 10:09:33;;;;;;;10.10;3.90;;;5.60;99.90;;;;;;4820427;29;20078;-77
2022/03/07 10:12:03;;;;;;;11.65;4.03;;;5.70;99.90;;;;;;4804460;29;20562;-74
2022/03/07 10:14:46;;;;;;;9.85;4.30;;;6.00;99.90;;;;;;4804161;29;20058;-76
2022/03/07 10:17:20;;;;;;;12.02;3.50;;;5.60;99.90;;;;;;4818729;29;20054;-78
2022/03/07 10:19:47;;;;;;;11.10;4.05;;;6.00;99.90;;;;;;4820680;29;20086;-79
2022/03/07 10:22:19;;;;;;;10.73;4.43;;;5.80;99.90;;;;;;4821286;29;20077;-78
2022/03/07 10:24:45;;;;;;;8.85;3.70;;;6.10;99.90;;;;;;4817667;29;20046;-79
2022/03/07 10:27:23;;;;;;;10.13;3.70;;;6.50;99.90;;;;;;4819433;29;20089;-77
2022/03/07 10:29:49;;;;;;;11.23;4.05;;;6.60;99.90;;;;;;4819298;29;20062;-79
2022/03/07 10:32:18;;;;;;;12.00;3.58;;;6.10;99.90;;;;;;4821027;29;20684;-79
2022/03/07 10:34:44;;;;;;;8.18;3.20;;;6.10;99.90;;;;;;4821231;29;20047;-80
2022/03/07 10:37:11;;;;;;;8.07;2.95;;;6.20;99.90;;;;;;4802589;29;20464;-78
2022/03/07 10:39:44;;;;;;;9.77;2.55;;;6.50;99.90;;;;;;4821599;29;20099;-77
2022/03/07 10:42:18;;;;;;;8.20;2.90;;;5.90;99.90;;;;;;4803944;29;20058;-80
2022/03/07 10:44:44;;;;;;;7.97;2.50;;;5.70;99.90;;;;;;4805243;29;20098;-79
2022/03/07 10:47:17;;;;;;;7.43;2.60;;;5.70;99.90;;;;;;4818955;29;20073;-79
2022/03/07 10:49:54;;;;;;;6.30;2.55;;;5.10;99.90;;;;;;4820754;29;20050;-79
2022/03/07 10:52:22;;;;;;;7.95;2.22;;;5.70;99.90;;;;;;4818887;29;20043;-78
2022/03/07 10:54:49;;;;;;;6.32;2.42;;;5.70;99.90;;;;;;4831141;29;20050;-78
2022/03/07 10:57:19;;;;;;;6.25;2.30;;;5.80;99.90;;;;;;4814155;29;20418;-79
2022/03/07 10:59:45;;;;;;;8.00;2.45;;;6.60;99.90;;;;;;4832950;29;20050;-81
2022/03/07 11:02:16;;;;;;;8.25;2.30;;;6.30;99.90;;;;;;4828926;29;20137;-80
2022/03/07 11:04:48;;;;;;;7.20;2.45;;;6.60;99.90;;;;;;4824685;29;20054;-77
2022/03/07 11:07:14;;;;;;;6.82;2.15;;;6.20;99.90;;;;;;4823313;29;20088;-78
2022/03/07 11:09:41;;;;;;;6.32;1.90;;;6.90;99.90;;;;;;4823069;29;20086;-79
2022/03/07 11:12:11;;;;;;;8.88;2.42;;;6.50;99.90;;;;;;4807617;29;20050;-78
2022/03/07 11:14:42;;;;;;;7.15;2.88;;;6.60;99.90;;;;;;4823652;29;20061;-79
2022/03/07 11:17:12;;;;;;;5.47;2.20;;;6.80;99.90;;;;;;4821623;29;20090;-79
2022/03/07 11:19:40;;;;;;;5.38;1.90;;;6.80;99.90;;;;;;4806700;29;20066;-77
2022/03/07 11:22:07;;;;;;;5.93;1.90;;;6.90;99.90;;;;;;4823390;29;20489;-77
2022/03/07 11:24:37;;;;;;;6.65;1.80;;;7.00;99.90;;;;;;4822943;29;20130;-77
2022/03/07 11:27:04;;;;;;;5.28;1.42;;;7.00;99.90;;;;;;4822495;29;20072;-77
2022/03/07 11:29:40;;;;;;;4.18;1.60;;;7.10;99.90;;;;;;4822663;29;20105;-75
2022/03/07 11:32:11;;;;;;;11.68;2.15;;;7.10;99.90;;;;;;4821987;29;20054;-76
2022/03/07 11:34:38;;;;;;;6.57;2.10;;;7.20;99.90;;;;;;4805683;29;20042;-78
2022/03/07 11:37:19;;;;;;;6.97;2.55;;;7.30;99.90;;;;;;4821754;29;20053;-75
2022/03/07 11:39:45;;;;;;;5.28;1.92;;;7.60;99.90;;;;;;4823121;29;20073;-76
2022/03/07 11:42:14;;;;;;;5.65;2.58;;;7.80;99.90;;;;;;4822104;29;20054;-78
2022/03/07 11:44:42;;;;;;;6.30;2.08;;;7.90;99.90;;;;;;4823479;29;20443;-78
2022/03/07 11:47:10;;;;;;;8.35;2.42;;;8.20;99.90;;;;;;4821042;29;20050;-77
2022/03/07 11:49:36;;;;;;;5.40;2.00;;;8.10;99.90;;;;;;4822859;29;20039;-70
2022/03/07 11:52:13;;;;;;;5.05;1.88;;;8.80;99.90;;;;;;4821415;29;20057;-73
2022/03/07 11:54:51;;;;;;;4.50;2.00;;;8.70;99.90;;;;;;4822871;29;20086;-73
2022/03/07 11:57:17;;;;;;;6.05;2.50;;;8.50;99.90;;;;;;4821071;29;20133;-72
2022/03/07 11:59:44;;;;;;;6.55;2.28;;;8.70;99.90;;;;;;4822294;29;20118;-72
2022/03/07 12:02:10;;;;;;;5.30;1.90;;;8.40;99.90;;;;;;4819153;29;20495;-69
2022/03/07 12:04:45;;;;;;;6.82;2.10;;;8.30;99.90;;;;;;4804660;29;20050;-71
2022/03/07 12:07:11;;;;;;;5.63;1.85;;;8.40;99.90;;;;;;4804796;29;20511;-70
2022/03/07 12:09:39;;;;;;;5.10;1.80;;;8.40;99.90;;;;;;4824527;29;20062;-71
2022/03/07 12:12:10;;;;;;;4.35;1.63;;;8.50;99.90;;;;;;4822437;29;20046;-73
2022/03/07 12:14:40;;;;;;;4.55;1.67;;;8.50;99.90;;;;;;4821218;29;20042;-73
2022/03/07 12:17:18;;;;;;;6.13;2.15;;;8.50;99.90;;;;;;4805561;29;20482;-72
2022/03/07 12:19:51;;;;;;;3.60;1.35;;;8.70;99.90;;;;;;4823188;29;20047;-72
2022/03/07 12:22:17;;;;;;;4.20;1.70;;;9.10;99.90;;;;;;4823479;29;20061;-72
2022/03/07 12:24:44;;;;;;;4.03;1.65;;;8.90;99.90;;;;;;4822351;29;20046;-71
2022/03/07 12:27:10;;;;;;;3.90;1.48;;;8.90;99.90;;;;;;4801200;29;20084;-72
2022/03/07 12:29:43;;;;;;;5.82;1.92;;;9.00;99.90;;;;;;4807430;29;20054;-71
2022/03/07 12:32:10;;;;;;;4.80;1.80;;;8.90;99.90;;;;;;4806511;29;20042;-72
2022/03/07 12:34:39;;;;;;;6.07;1.73;;;8.90;99.90;;;;;;4821042;29;20476;-79
2022/03/07 12:37:08;;;;;;;4.10;1.40;;;8.80;99.90;;;;;;4820102;29;20058;-77
2022/03/07 12:39:53;;;;;;;7.82;1.92;;;8.80;99.90;;;;;;4822778;29;20074;-76
2022/03/07 12:42:22;;;;;;;5.50;1.90;;;8.80;99.90;;;;;;4819146;29;20050;-77